Weather at Inverell Airport

Public forecast

Using degrees Celsius for public forecast. Weather courtesy of forecast.io.

Closest aviation weather report (METAR) to Inverell Airport

Closest report is Moree Airport, 71.7 nm (132.7 km) WNW. Retrieved 2020/12/02 17:00 UTC (23 minutes ago):

YMOR 021700Z AUTO 03007KT 9999 // NCD 26/18 Q1016

Closest aviation forecast (TAF) to Inverell Airport

Closest forecast is Tamworth Airport, 73.4 nm (136.0 km) SSW. Retrieved 2020/12/02 12:36 UTC (5 hours ago):

TAF TAF YSTW 021109Z 0212/0306 13014KT CAVOK FM021800 10010KT CAVOK FM022200 06010KT CAVOK TEMPO 0305/0306 VRB20G30KT TSRA SCT050CB